sensor_id;sensor_type;location;lat;lon;timestamp;P1;durP1;ratioP1;P2;durP2;ratioP2
19278;SDS011;9773;47.062;15.446;2022-12-07T00:01:12;10.43;;;7.80;;
19278;SDS011;9773;47.062;15.446;2022-12-07T00:03:41;8.90;;;7.33;;
19278;SDS011;9773;47.062;15.446;2022-12-07T00:06:09;10.60;;;7.83;;
19278;SDS011;9773;47.062;15.446;2022-12-07T00:08:36;10.07;;;7.53;;
19278;SDS011;9773;47.062;15.446;2022-12-07T00:11:05;11.87;;;7.53;;
19278;SDS011;9773;47.062;15.446;2022-12-07T00:13:53;10.87;;;8.17;;
19278;SDS011;9773;47.062;15.446;2022-12-07T00:16:25;12.73;;;7.50;;
19278;SDS011;9773;47.062;15.446;2022-12-07T00:18:52;11.97;;;8.53;;
19278;SDS011;9773;47.062;15.446;2022-12-07T00:21:20;9.73;;;7.37;;
19278;SDS011;9773;47.062;15.446;2022-12-07T00:23:48;8.60;;;7.00;;
19278;SDS011;9773;47.062;15.446;2022-12-07T00:26:16;10.53;;;7.67;;
19278;SDS011;9773;47.062;15.446;2022-12-07T00:29:01;13.13;;;7.70;;
19278;SDS011;9773;47.062;15.446;2022-12-07T00:31:30;9.53;;;7.47;;
19278;SDS011;9773;47.062;15.446;2022-12-07T00:34:00;9.90;;;7.40;;
19278;SDS011;9773;47.062;15.446;2022-12-07T00:36:26;8.70;;;7.13;;
19278;SDS011;9773;47.062;15.446;2022-12-07T00:38:52;11.63;;;7.50;;
19278;SDS011;9773;47.062;15.446;2022-12-07T00:41:20;9.90;;;7.20;;
19278;SDS011;9773;47.062;15.446;2022-12-07T00:43:48;10.47;;;7.27;;
19278;SDS011;9773;47.062;15.446;2022-12-07T00:46:14;8.17;;;7.20;;
19278;SDS011;9773;47.062;15.446;2022-12-07T00:48:41;8.93;;;6.90;;
19278;SDS011;9773;47.062;15.446;2022-12-07T00:51:07;12.33;;;7.80;;
19278;SDS011;9773;47.062;15.446;2022-12-07T00:53:36;9.73;;;7.23;;
19278;SDS011;9773;47.062;15.446;2022-12-07T00:56:06;8.23;;;7.00;;
19278;SDS011;9773;47.062;15.446;2022-12-07T00:58:40;11.00;;;7.37;;
19278;SDS011;9773;47.062;15.446;2022-12-07T01:01:06;10.27;;;7.70;;
19278;SDS011;9773;47.062;15.446;2022-12-07T01:03:33;9.10;;;6.77;;
19278;SDS011;9773;47.062;15.446;2022-12-07T01:06:00;11.43;;;7.60;;
19278;SDS011;9773;47.062;15.446;2022-12-07T01:08:26;10.10;;;7.27;;
19278;SDS011;9773;47.062;15.446;2022-12-07T01:11:00;10.17;;;7.63;;
19278;SDS011;9773;47.062;15.446;2022-12-07T01:13:28;9.87;;;7.40;;
19278;SDS011;9773;47.062;15.446;2022-12-07T01:15:56;10.80;;;7.80;;
19278;SDS011;9773;47.062;15.446;2022-12-07T01:18:25;11.87;;;8.10;;
19278;SDS011;9773;47.062;15.446;2022-12-07T01:20:59;10.47;;;7.50;;
19278;SDS011;9773;47.062;15.446;2022-12-07T01:23:36;8.93;;;6.70;;
19278;SDS011;9773;47.062;15.446;2022-12-07T01:26:03;8.20;;;7.27;;
19278;SDS011;9773;47.062;15.446;2022-12-07T01:28:31;9.07;;;7.23;;
19278;SDS011;9773;47.062;15.446;2022-12-07T01:30:58;10.43;;;6.93;;
19278;SDS011;9773;47.062;15.446;2022-12-07T01:33:27;9.87;;;7.20;;
19278;SDS011;9773;47.062;15.446;2022-12-07T01:36:06;11.20;;;7.57;;
19278;SDS011;9773;47.062;15.446;2022-12-07T01:38:33;11.00;;;7.83;;
19278;SDS011;9773;47.062;15.446;2022-12-07T01:41:02;9.90;;;6.80;;
19278;SDS011;9773;47.062;15.446;2022-12-07T01:43:30;11.23;;;7.10;;
19278;SDS011;9773;47.062;15.446;2022-12-07T01:45:57;12.10;;;7.83;;
19278;SDS011;9773;47.062;15.446;2022-12-07T01:48:26;11.33;;;7.30;;
19278;SDS011;9773;47.062;15.446;2022-12-07T01:50:55;11.63;;;7.57;;
19278;SDS011;9773;47.062;15.446;2022-12-07T01:53:25;14.47;;;7.63;;
19278;SDS011;9773;47.062;15.446;2022-12-07T01:55:53;10.63;;;7.30;;
19278;SDS011;9773;47.062;15.446;2022-12-07T01:58:21;13.67;;;8.23;;
19278;SDS011;9773;47.062;15.446;2022-12-07T02:00:48;10.93;;;7.47;;
19278;SDS011;9773;47.062;15.446;2022-12-07T02:06:20;10.23;;;8.10;;
19278;SDS011;9773;47.062;15.446;2022-12-07T02:08:49;11.43;;;8.07;;
19278;SDS011;9773;47.062;15.446;2022-12-07T02:11:18;12.07;;;7.63;;
19278;SDS011;9773;47.062;15.446;2022-12-07T02:13:45;12.07;;;7.83;;
19278;SDS011;9773;47.062;15.446;2022-12-07T02:18:55;13.53;;;8.47;;
19278;SDS011;9773;47.062;15.446;2022-12-07T02:30:17;11.13;;;7.47;;
19278;SDS011;9773;47.062;15.446;2022-12-07T02:32:52;13.80;;;7.73;;
19278;SDS011;9773;47.062;15.446;2022-12-07T02:35:21;10.80;;;7.00;;
19278;SDS011;9773;47.062;15.446;2022-12-07T02:38:03;13.60;;;6.93;;
19278;SDS011;9773;47.062;15.446;2022-12-07T02:40:43;16.33;;;8.33;;
19278;SDS011;9773;47.062;15.446;2022-12-07T02:43:14;11.23;;;7.57;;
19278;SDS011;9773;47.062;15.446;2022-12-07T02:45:56;10.47;;;7.50;;
19278;SDS011;9773;47.062;15.446;2022-12-07T02:48:26;11.20;;;7.83;;
19278;SDS011;9773;47.062;15.446;2022-12-07T02:50:53;11.00;;;6.90;;
19278;SDS011;9773;47.062;15.446;2022-12-07T02:55:56;9.03;;;6.03;;
19278;SDS011;9773;47.062;15.446;2022-12-07T03:01:12;8.53;;;6.77;;
19278;SDS011;9773;47.062;15.446;2022-12-07T03:03:47;11.27;;;6.77;;
19278;SDS011;9773;47.062;15.446;2022-12-07T03:06:27;11.67;;;7.47;;
19278;SDS011;9773;47.062;15.446;2022-12-07T03:09:11;9.90;;;6.70;;
19278;SDS011;9773;47.062;15.446;2022-12-07T03:11:45;9.93;;;6.40;;
19278;SDS011;9773;47.062;15.446;2022-12-07T03:16:55;10.87;;;6.10;;
19278;SDS011;9773;47.062;15.446;2022-12-07T03:19:26;7.73;;;6.27;;
19278;SDS011;9773;47.062;15.446;2022-12-07T03:21:57;9.10;;;5.83;;
19278;SDS011;9773;47.062;15.446;2022-12-07T03:24:31;7.97;;;6.47;;
19278;SDS011;9773;47.062;15.446;2022-12-07T03:27:03;8.17;;;6.37;;
19278;SDS011;9773;47.062;15.446;2022-12-07T03:29:40;8.90;;;5.80;;
19278;SDS011;9773;47.062;15.446;2022-12-07T03:34:49;7.10;;;5.80;;
19278;SDS011;9773;47.062;15.446;2022-12-07T03:37:32;7.83;;;5.70;;
19278;SDS011;9773;47.062;15.446;2022-12-07T03:42:27;7.00;;;5.30;;
19278;SDS011;9773;47.062;15.446;2022-12-07T03:44:54;8.07;;;5.57;;
19278;SDS011;9773;47.062;15.446;2022-12-07T03:49:56;6.90;;;5.00;;
19278;SDS011;9773;47.062;15.446;2022-12-07T03:55:24;6.77;;;5.10;;
19278;SDS011;9773;47.062;15.446;2022-12-07T03:57:55;8.30;;;5.40;;
19278;SDS011;9773;47.062;15.446;2022-12-07T04:00:35;7.17;;;5.40;;
19278;SDS011;9773;47.062;15.446;2022-12-07T04:03:01;9.20;;;5.80;;
19278;SDS011;9773;47.062;15.446;2022-12-07T04:05:30;5.73;;;5.13;;
19278;SDS011;9773;47.062;15.446;2022-12-07T04:07:56;5.77;;;4.60;;
19278;SDS011;9773;47.062;15.446;2022-12-07T04:10:22;6.73;;;5.40;;
19278;SDS011;9773;47.062;15.446;2022-12-07T04:12:47;7.43;;;5.87;;
19278;SDS011;9773;47.062;15.446;2022-12-07T04:15:13;6.73;;;5.47;;
19278;SDS011;9773;47.062;15.446;2022-12-07T04:17:39;6.33;;;5.03;;
19278;SDS011;9773;47.062;15.446;2022-12-07T04:20:05;7.83;;;6.40;;
19278;SDS011;9773;47.062;15.446;2022-12-07T04:22:31;6.57;;;5.30;;
19278;SDS011;9773;47.062;15.446;2022-12-07T04:24:57;7.90;;;5.67;;
19278;SDS011;9773;47.062;15.446;2022-12-07T04:27:23;6.20;;;5.40;;
19278;SDS011;9773;47.062;15.446;2022-12-07T04:29:49;5.90;;;5.00;;
19278;SDS011;9773;47.062;15.446;2022-12-07T04:32:15;6.73;;;5.30;;
19278;SDS011;9773;47.062;15.446;2022-12-07T04:34:40;6.17;;;5.17;;
19278;SDS011;9773;47.062;15.446;2022-12-07T04:37:06;6.80;;;5.33;;
19278;SDS011;9773;47.062;15.446;2022-12-07T04:39:34;8.53;;;5.43;;
19278;SDS011;9773;47.062;15.446;2022-12-07T04:42:00;6.43;;;5.30;;
19278;SDS011;9773;47.062;15.446;2022-12-07T04:44:26;8.43;;;5.47;;
19278;SDS011;9773;47.062;15.446;2022-12-07T04:46:53;8.90;;;6.07;;
19278;SDS011;9773;47.062;15.446;2022-12-07T04:49:20;6.87;;;5.70;;
19278;SDS011;9773;47.062;15.446;2022-12-07T04:51:46;7.30;;;6.03;;
19278;SDS011;9773;47.062;15.446;2022-12-07T04:54:13;6.00;;;5.40;;
19278;SDS011;9773;47.062;15.446;2022-12-07T04:56:39;8.30;;;5.63;;
19278;SDS011;9773;47.062;15.446;2022-12-07T04:59:05;6.10;;;5.33;;
19278;SDS011;9773;47.062;15.446;2022-12-07T05:01:32;6.20;;;5.27;;
19278;SDS011;9773;47.062;15.446;2022-12-07T05:04:00;5.70;;;5.10;;
19278;SDS011;9773;47.062;15.446;2022-12-07T05:06:26;8.07;;;6.10;;
19278;SDS011;9773;47.062;15.446;2022-12-07T05:08:52;6.77;;;5.63;;
19278;SDS011;9773;47.062;15.446;2022-12-07T05:11:18;8.80;;;6.57;;
19278;SDS011;9773;47.062;15.446;2022-12-07T05:14:03;7.07;;;5.60;;
19278;SDS011;9773;47.062;15.446;2022-12-07T05:16:39;8.10;;;5.90;;
19278;SDS011;9773;47.062;15.446;2022-12-07T05:19:07;8.13;;;6.10;;
19278;SDS011;9773;47.062;15.446;2022-12-07T05:21:33;13.43;;;7.57;;
19278;SDS011;9773;47.062;15.446;2022-12-07T05:23:59;14.10;;;10.23;;
19278;SDS011;9773;47.062;15.446;2022-12-07T05:26:25;9.27;;;6.60;;
19278;SDS011;9773;47.062;15.446;2022-12-07T05:28:52;8.40;;;5.77;;
19278;SDS011;9773;47.062;15.446;2022-12-07T05:31:19;6.57;;;5.83;;
19278;SDS011;9773;47.062;15.446;2022-12-07T05:33:46;7.33;;;6.27;;
19278;SDS011;9773;47.062;15.446;2022-12-07T05:36:12;10.50;;;6.73;;
19278;SDS011;9773;47.062;15.446;2022-12-07T05:38:38;9.77;;;6.77;;
19278;SDS011;9773;47.062;15.446;2022-12-07T05:41:05;9.10;;;6.47;;
19278;SDS011;9773;47.062;15.446;2022-12-07T05:43:32;8.27;;;6.23;;
19278;SDS011;9773;47.062;15.446;2022-12-07T05:45:58;9.10;;;7.03;;
19278;SDS011;9773;47.062;15.446;2022-12-07T05:48:25;9.90;;;6.53;;
19278;SDS011;9773;47.062;15.446;2022-12-07T05:50:51;11.80;;;6.80;;
19278;SDS011;9773;47.062;15.446;2022-12-07T05:53:17;7.70;;;6.20;;
19278;SDS011;9773;47.062;15.446;2022-12-07T05:55:43;8.27;;;6.20;;
19278;SDS011;9773;47.062;15.446;2022-12-07T05:58:09;8.67;;;6.50;;
19278;SDS011;9773;47.062;15.446;2022-12-07T06:00:54;9.33;;;6.03;;
19278;SDS011;9773;47.062;15.446;2022-12-07T06:03:20;8.33;;;6.30;;
19278;SDS011;9773;47.062;15.446;2022-12-07T06:05:46;7.90;;;6.37;;
19278;SDS011;9773;47.062;15.446;2022-12-07T06:08:12;8.13;;;6.13;;
19278;SDS011;9773;47.062;15.446;2022-12-07T06:10:39;8.73;;;6.43;;
19278;SDS011;9773;47.062;15.446;2022-12-07T06:13:06;8.90;;;7.00;;
19278;SDS011;9773;47.062;15.446;2022-12-07T06:15:32;8.63;;;6.23;;
19278;SDS011;9773;47.062;15.446;2022-12-07T06:18:01;9.13;;;6.73;;
19278;SDS011;9773;47.062;15.446;2022-12-07T06:20:26;10.13;;;6.80;;
19278;SDS011;9773;47.062;15.446;2022-12-07T06:22:52;8.73;;;6.33;;
19278;SDS011;9773;47.062;15.446;2022-12-07T06:25:18;6.80;;;6.00;;
19278;SDS011;9773;47.062;15.446;2022-12-07T06:27:44;6.43;;;5.73;;
19278;SDS011;9773;47.062;15.446;2022-12-07T06:30:09;7.83;;;6.37;;
19278;SDS011;9773;47.062;15.446;2022-12-07T06:32:36;12.20;;;6.93;;
19278;SDS011;9773;47.062;15.446;2022-12-07T06:35:03;9.77;;;7.30;;
19278;SDS011;9773;47.062;15.446;2022-12-07T06:37:29;12.43;;;7.47;;
19278;SDS011;9773;47.062;15.446;2022-12-07T06:39:55;11.57;;;7.23;;
19278;SDS011;9773;47.062;15.446;2022-12-07T06:42:21;8.47;;;6.47;;
19278;SDS011;9773;47.062;15.446;2022-12-07T06:44:47;8.00;;;6.73;;
19278;SDS011;9773;47.062;15.446;2022-12-07T06:47:12;8.03;;;6.30;;
19278;SDS011;9773;47.062;15.446;2022-12-07T06:49:38;8.50;;;6.37;;
19278;SDS011;9773;47.062;15.446;2022-12-07T06:52:04;9.60;;;6.70;;
19278;SDS011;9773;47.062;15.446;2022-12-07T06:54:30;10.47;;;6.67;;
19278;SDS011;9773;47.062;15.446;2022-12-07T06:56:56;9.87;;;7.23;;
19278;SDS011;9773;47.062;15.446;2022-12-07T06:59:22;8.90;;;7.37;;
19278;SDS011;9773;47.062;15.446;2022-12-07T07:01:48;9.93;;;7.10;;
19278;SDS011;9773;47.062;15.446;2022-12-07T07:04:14;10.13;;;6.87;;
19278;SDS011;9773;47.062;15.446;2022-12-07T07:06:40;8.73;;;6.73;;
19278;SDS011;9773;47.062;15.446;2022-12-07T07:09:06;10.67;;;7.20;;
19278;SDS011;9773;47.062;15.446;2022-12-07T07:11:32;11.50;;;6.80;;
19278;SDS011;9773;47.062;15.446;2022-12-07T07:14:01;11.93;;;8.30;;
19278;SDS011;9773;47.062;15.446;2022-12-07T07:16:28;11.53;;;7.23;;
19278;SDS011;9773;47.062;15.446;2022-12-07T07:18:57;11.47;;;7.50;;
19278;SDS011;9773;47.062;15.446;2022-12-07T07:21:23;9.90;;;7.07;;
19278;SDS011;9773;47.062;15.446;2022-12-07T07:23:49;11.20;;;7.93;;
19278;SDS011;9773;47.062;15.446;2022-12-07T07:26:15;8.63;;;6.73;;
19278;SDS011;9773;47.062;15.446;2022-12-07T07:28:41;9.43;;;7.07;;
19278;SDS011;9773;47.062;15.446;2022-12-07T07:31:07;10.23;;;7.10;;
19278;SDS011;9773;47.062;15.446;2022-12-07T07:33:32;10.67;;;7.10;;
19278;SDS011;9773;47.062;15.446;2022-12-07T07:35:58;9.60;;;7.13;;
19278;SDS011;9773;47.062;15.446;2022-12-07T07:38:24;8.70;;;6.67;;
19278;SDS011;9773;47.062;15.446;2022-12-07T07:40:50;12.93;;;7.80;;
19278;SDS011;9773;47.062;15.446;2022-12-07T07:43:16;13.33;;;8.53;;
19278;SDS011;9773;47.062;15.446;2022-12-07T07:45:41;11.83;;;8.53;;
19278;SDS011;9773;47.062;15.446;2022-12-07T07:48:07;11.33;;;7.27;;
19278;SDS011;9773;47.062;15.446;2022-12-07T07:50:33;10.80;;;7.63;;
19278;SDS011;9773;47.062;15.446;2022-12-07T07:52:59;10.57;;;7.80;;
19278;SDS011;9773;47.062;15.446;2022-12-07T07:55:25;11.13;;;8.20;;
19278;SDS011;9773;47.062;15.446;2022-12-07T07:57:51;11.80;;;7.67;;
19278;SDS011;9773;47.062;15.446;2022-12-07T08:00:17;12.40;;;8.90;;
19278;SDS011;9773;47.062;15.446;2022-12-07T08:02:43;13.77;;;8.87;;
19278;SDS011;9773;47.062;15.446;2022-12-07T08:05:10;15.50;;;9.00;;
19278;SDS011;9773;47.062;15.446;2022-12-07T08:07:36;16.97;;;9.87;;
19278;SDS011;9773;47.062;15.446;2022-12-07T08:10:03;16.20;;;10.33;;
19278;SDS011;9773;47.062;15.446;2022-12-07T08:12:29;13.53;;;9.03;;
19278;SDS011;9773;47.062;15.446;2022-12-07T08:14:55;18.30;;;10.20;;
19278;SDS011;9773;47.062;15.446;2022-12-07T08:17:20;14.53;;;9.50;;
19278;SDS011;9773;47.062;15.446;2022-12-07T08:19:46;14.70;;;9.23;;
19278;SDS011;9773;47.062;15.446;2022-12-07T08:22:12;17.50;;;10.07;;
19278;SDS011;9773;47.062;15.446;2022-12-07T08:24:38;14.63;;;9.37;;
19278;SDS011;9773;47.062;15.446;2022-12-07T08:27:03;16.83;;;9.63;;
19278;SDS011;9773;47.062;15.446;2022-12-07T08:29:29;16.57;;;9.67;;
19278;SDS011;9773;47.062;15.446;2022-12-07T08:31:55;17.00;;;9.03;;
19278;SDS011;9773;47.062;15.446;2022-12-07T08:34:21;14.83;;;9.50;;
19278;SDS011;9773;47.062;15.446;2022-12-07T08:36:47;17.43;;;9.07;;
19278;SDS011;9773;47.062;15.446;2022-12-07T08:39:13;18.93;;;8.77;;
19278;SDS011;9773;47.062;15.446;2022-12-07T08:41:40;15.17;;;10.20;;
19278;SDS011;9773;47.062;15.446;2022-12-07T08:44:06;15.47;;;9.17;;
19278;SDS011;9773;47.062;15.446;2022-12-07T08:46:38;15.73;;;9.63;;
19278;SDS011;9773;47.062;15.446;2022-12-07T08:49:27;15.77;;;9.83;;
19278;SDS011;9773;47.062;15.446;2022-12-07T08:52:02;16.60;;;9.77;;
19278;SDS011;9773;47.062;15.446;2022-12-07T08:54:29;18.73;;;9.50;;
19278;SDS011;9773;47.062;15.446;2022-12-07T08:56:55;12.70;;;8.97;;
19278;SDS011;9773;47.062;15.446;2022-12-07T08:59:21;14.77;;;9.17;;
19278;SDS011;9773;47.062;15.446;2022-12-07T09:01:48;14.53;;;9.23;;
19278;SDS011;9773;47.062;15.446;2022-12-07T09:04:14;15.70;;;10.23;;
19278;SDS011;9773;47.062;15.446;2022-12-07T09:06:41;17.27;;;10.53;;
19278;SDS011;9773;47.062;15.446;2022-12-07T09:09:07;18.43;;;10.87;;
19278;SDS011;9773;47.062;15.446;2022-12-07T09:11:34;17.57;;;10.30;;
19278;SDS011;9773;47.062;15.446;2022-12-07T09:14:00;15.97;;;9.30;;
19278;SDS011;9773;47.062;15.446;2022-12-07T09:16:25;17.77;;;9.40;;
19278;SDS011;9773;47.062;15.446;2022-12-07T09:18:51;17.67;;;10.17;;
19278;SDS011;9773;47.062;15.446;2022-12-07T09:21:17;15.67;;;10.13;;
19278;SDS011;9773;47.062;15.446;2022-12-07T09:23:43;17.97;;;10.83;;
19278;SDS011;9773;47.062;15.446;2022-12-07T09:26:09;14.53;;;10.00;;
19278;SDS011;9773;47.062;15.446;2022-12-07T09:28:35;16.63;;;10.00;;
19278;SDS011;9773;47.062;15.446;2022-12-07T09:31:01;16.43;;;10.27;;
19278;SDS011;9773;47.062;15.446;2022-12-07T09:33:28;15.87;;;9.90;;
19278;SDS011;9773;47.062;15.446;2022-12-07T09:35:53;14.73;;;9.60;;
19278;SDS011;9773;47.062;15.446;2022-12-07T09:38:20;15.83;;;9.87;;
19278;SDS011;9773;47.062;15.446;2022-12-07T09:40:46;16.03;;;10.50;;
19278;SDS011;9773;47.062;15.446;2022-12-07T09:43:31;14.33;;;10.00;;
19278;SDS011;9773;47.062;15.446;2022-12-07T09:45:56;16.27;;;10.23;;
19278;SDS011;9773;47.062;15.446;2022-12-07T09:48:25;17.73;;;9.93;;
19278;SDS011;9773;47.062;15.446;2022-12-07T09:50:57;15.37;;;9.50;;
19278;SDS011;9773;47.062;15.446;2022-12-07T09:53:33;14.33;;;10.00;;
19278;SDS011;9773;47.062;15.446;2022-12-07T09:56:02;19.50;;;10.67;;
19278;SDS011;9773;47.062;15.446;2022-12-07T09:58:28;13.70;;;9.70;;
19278;SDS011;9773;47.062;15.446;2022-12-07T10:00:58;17.90;;;9.77;;
19278;SDS011;9773;47.062;15.446;2022-12-07T10:03:30;15.70;;;10.03;;
19278;SDS011;9773;47.062;15.446;2022-12-07T10:05:56;14.80;;;9.07;;
19278;SDS011;9773;47.062;15.446;2022-12-07T10:08:22;13.67;;;9.30;;
19278;SDS011;9773;47.062;15.446;2022-12-07T10:10:51;14.07;;;10.13;;
19278;SDS011;9773;47.062;15.446;2022-12-07T10:13:33;15.03;;;9.50;;
19278;SDS011;9773;47.062;15.446;2022-12-07T10:16:02;16.93;;;9.60;;
19278;SDS011;9773;47.062;15.446;2022-12-07T10:18:36;15.50;;;9.47;;
19278;SDS011;9773;47.062;15.446;2022-12-07T10:21:19;14.33;;;9.87;;
19278;SDS011;9773;47.062;15.446;2022-12-07T10:23:59;18.77;;;10.40;;
19278;SDS011;9773;47.062;15.446;2022-12-07T10:32:23;16.07;;;10.63;;
19278;SDS011;9773;47.062;15.446;2022-12-07T10:34:42;17.43;;;10.83;;
19278;SDS011;9773;47.062;15.446;2022-12-07T10:39:41;16.90;;;10.73;;
19278;SDS011;9773;47.062;15.446;2022-12-07T10:42:21;15.63;;;10.83;;
19278;SDS011;9773;47.062;15.446;2022-12-07T10:47:55;19.77;;;12.00;;
19278;SDS011;9773;47.062;15.446;2022-12-07T11:01:24;17.77;;;11.27;;
19278;SDS011;9773;47.062;15.446;2022-12-07T11:15:21;20.47;;;12.67;;
19278;SDS011;9773;47.062;15.446;2022-12-07T11:18:19;20.37;;;11.90;;
19278;SDS011;9773;47.062;15.446;2022-12-07T11:21:12;21.10;;;12.13;;
19278;SDS011;9773;47.062;15.446;2022-12-07T11:24:16;19.40;;;12.07;;
19278;SDS011;9773;47.062;15.446;2022-12-07T11:26:59;17.77;;;11.93;;
19278;SDS011;9773;47.062;15.446;2022-12-07T11:37:59;18.63;;;11.40;;
19278;SDS011;9773;47.062;15.446;2022-12-07T11:40:36;21.73;;;12.57;;
19278;SDS011;9773;47.062;15.446;2022-12-07T11:43:09;19.43;;;12.63;;
19278;SDS011;9773;47.062;15.446;2022-12-07T11:46:12;22.63;;;12.23;;
19278;SDS011;9773;47.062;15.446;2022-12-07T11:51:25;20.10;;;11.53;;
19278;SDS011;9773;47.062;15.446;2022-12-07T11:53:54;20.57;;;11.63;;
19278;SDS011;9773;47.062;15.446;2022-12-07T11:56:27;20.37;;;12.30;;
19278;SDS011;9773;47.062;15.446;2022-12-07T12:02:01;20.30;;;12.97;;
19278;SDS011;9773;47.062;15.446;2022-12-07T12:07:24;21.37;;;11.87;;
19278;SDS011;9773;47.062;15.446;2022-12-07T12:09:59;16.93;;;11.53;;
19278;SDS011;9773;47.062;15.446;2022-12-07T12:20:57;23.87;;;12.07;;
19278;SDS011;9773;47.062;15.446;2022-12-07T12:23:44;20.77;;;11.80;;
19278;SDS011;9773;47.062;15.446;2022-12-07T12:26:31;22.07;;;12.23;;
19278;SDS011;9773;47.062;15.446;2022-12-07T12:29:04;21.73;;;12.33;;
19278;SDS011;9773;47.062;15.446;2022-12-07T12:31:37;20.40;;;12.33;;
19278;SDS011;9773;47.062;15.446;2022-12-07T12:42:52;22.87;;;11.40;;
19278;SDS011;9773;47.062;15.446;2022-12-07T12:59:16;20.07;;;11.77;;
19278;SDS011;9773;47.062;15.446;2022-12-07T13:01:43;19.00;;;11.77;;
19278;SDS011;9773;47.062;15.446;2022-12-07T13:04:27;20.13;;;12.50;;
19278;SDS011;9773;47.062;15.446;2022-12-07T13:06:59;23.77;;;12.70;;
19278;SDS011;9773;47.062;15.446;2022-12-07T13:09:26;20.27;;;11.40;;
19278;SDS011;9773;47.062;15.446;2022-12-07T13:11:59;18.63;;;11.90;;
19278;SDS011;9773;47.062;15.446;2022-12-07T13:17:09;24.77;;;11.87;;
19278;SDS011;9773;47.062;15.446;2022-12-07T13:25:03;20.40;;;11.87;;
19278;SDS011;9773;47.062;15.446;2022-12-07T13:27:37;21.87;;;12.43;;
19278;SDS011;9773;47.062;15.446;2022-12-07T13:30:12;23.53;;;13.23;;
19278;SDS011;9773;47.062;15.446;2022-12-07T13:32:55;18.80;;;12.00;;
19278;SDS011;9773;47.062;15.446;2022-12-07T13:38:02;18.53;;;11.77;;
19278;SDS011;9773;47.062;15.446;2022-12-07T13:40:31;14.60;;;10.20;;
19278;SDS011;9773;47.062;15.446;2022-12-07T13:42:58;17.57;;;11.17;;
19278;SDS011;9773;47.062;15.446;2022-12-07T13:45:27;20.33;;;11.77;;
19278;SDS011;9773;47.062;15.446;2022-12-07T13:48:19;18.60;;;10.93;;
19278;SDS011;9773;47.062;15.446;2022-12-07T13:51:15;16.07;;;10.90;;
19278;SDS011;9773;47.062;15.446;2022-12-07T13:53:47;15.47;;;10.83;;
19278;SDS011;9773;47.062;15.446;2022-12-07T13:56:26;15.00;;;10.70;;
19278;SDS011;9773;47.062;15.446;2022-12-07T13:58:59;14.53;;;10.57;;
19278;SDS011;9773;47.062;15.446;2022-12-07T14:01:25;18.07;;;11.33;;
19278;SDS011;9773;47.062;15.446;2022-12-07T14:03:51;16.07;;;10.27;;
19278;SDS011;9773;47.062;15.446;2022-12-07T14:08:50;14.57;;;10.93;;
19278;SDS011;9773;47.062;15.446;2022-12-07T14:11:31;13.40;;;9.90;;
19278;SDS011;9773;47.062;15.446;2022-12-07T14:13:59;15.87;;;10.03;;
19278;SDS011;9773;47.062;15.446;2022-12-07T14:16:34;15.13;;;11.23;;
19278;SDS011;9773;47.062;15.446;2022-12-07T14:19:03;16.50;;;9.93;;
19278;SDS011;9773;47.062;15.446;2022-12-07T14:21:30;14.30;;;10.37;;
19278;SDS011;9773;47.062;15.446;2022-12-07T14:24:12;15.57;;;10.47;;
19278;SDS011;9773;47.062;15.446;2022-12-07T14:26:38;15.23;;;10.70;;
19278;SDS011;9773;47.062;15.446;2022-12-07T14:31:50;15.77;;;10.77;;
19278;SDS011;9773;47.062;15.446;2022-12-07T14:34:19;15.33;;;10.00;;
19278;SDS011;9773;47.062;15.446;2022-12-07T14:36:45;15.77;;;10.40;;
19278;SDS011;9773;47.062;15.446;2022-12-07T14:39:11;14.70;;;10.70;;
19278;SDS011;9773;47.062;15.446;2022-12-07T14:41:37;14.07;;;9.83;;
19278;SDS011;9773;47.062;15.446;2022-12-07T14:44:15;15.77;;;10.60;;
19278;SDS011;9773;47.062;15.446;2022-12-07T14:46:42;17.97;;;10.57;;
19278;SDS011;9773;47.062;15.446;2022-12-07T14:49:07;17.33;;;10.47;;
19278;SDS011;9773;47.062;15.446;2022-12-07T14:51:33;16.03;;;10.47;;
19278;SDS011;9773;47.062;15.446;2022-12-07T14:54:04;16.53;;;10.07;;
19278;SDS011;9773;47.062;15.446;2022-12-07T14:56:32;14.50;;;10.27;;
19278;SDS011;9773;47.062;15.446;2022-12-07T14:58:57;20.47;;;10.90;;
19278;SDS011;9773;47.062;15.446;2022-12-07T15:01:23;13.27;;;10.20;;
19278;SDS011;9773;47.062;15.446;2022-12-07T15:03:49;17.57;;;10.93;;
19278;SDS011;9773;47.062;15.446;2022-12-07T15:06:16;18.57;;;10.17;;
19278;SDS011;9773;47.062;15.446;2022-12-07T15:08:44;16.70;;;10.83;;
19278;SDS011;9773;47.062;15.446;2022-12-07T15:11:12;17.03;;;10.40;;
19278;SDS011;9773;47.062;15.446;2022-12-07T15:13:38;16.10;;;10.80;;
19278;SDS011;9773;47.062;15.446;2022-12-07T15:16:23;14.10;;;10.53;;
19278;SDS011;9773;47.062;15.446;2022-12-07T15:18:49;12.63;;;10.10;;
19278;SDS011;9773;47.062;15.446;2022-12-07T15:21:15;13.10;;;10.27;;
19278;SDS011;9773;47.062;15.446;2022-12-07T15:23:41;15.23;;;10.60;;
19278;SDS011;9773;47.062;15.446;2022-12-07T15:26:07;14.07;;;10.37;;
19278;SDS011;9773;47.062;15.446;2022-12-07T15:28:35;14.60;;;10.10;;
19278;SDS011;9773;47.062;15.446;2022-12-07T15:31:01;16.30;;;9.97;;
19278;SDS011;9773;47.062;15.446;2022-12-07T15:33:27;13.67;;;9.57;;
19278;SDS011;9773;47.062;15.446;2022-12-07T15:35:53;13.30;;;9.90;;
19278;SDS011;9773;47.062;15.446;2022-12-07T15:38:19;14.60;;;10.67;;
19278;SDS011;9773;47.062;15.446;2022-12-07T15:40:48;16.40;;;11.40;;
19278;SDS011;9773;47.062;15.446;2022-12-07T15:43:15;16.10;;;11.43;;
19278;SDS011;9773;47.062;15.446;2022-12-07T15:46:00;18.93;;;10.90;;
19278;SDS011;9773;47.062;15.446;2022-12-07T15:48:26;14.40;;;10.70;;
19278;SDS011;9773;47.062;15.446;2022-12-07T15:50:51;15.50;;;11.70;;
19278;SDS011;9773;47.062;15.446;2022-12-07T15:53:17;17.13;;;10.90;;
19278;SDS011;9773;47.062;15.446;2022-12-07T15:55:43;19.07;;;11.03;;
19278;SDS011;9773;47.062;15.446;2022-12-07T15:58:09;18.17;;;11.60;;
19278;SDS011;9773;47.062;15.446;2022-12-07T16:00:35;14.97;;;10.57;;
19278;SDS011;9773;47.062;15.446;2022-12-07T16:03:01;14.50;;;10.17;;
19278;SDS011;9773;47.062;15.446;2022-12-07T16:05:26;16.47;;;10.17;;
19278;SDS011;9773;47.062;15.446;2022-12-07T16:07:52;11.77;;;9.63;;
19278;SDS011;9773;47.062;15.446;2022-12-07T16:10:18;13.67;;;10.03;;
19278;SDS011;9773;47.062;15.446;2022-12-07T16:12:44;13.03;;;10.00;;
19278;SDS011;9773;47.062;15.446;2022-12-07T16:15:09;15.93;;;10.00;;
19278;SDS011;9773;47.062;15.446;2022-12-07T16:17:35;13.13;;;10.23;;
19278;SDS011;9773;47.062;15.446;2022-12-07T16:20:01;13.23;;;10.37;;
19278;SDS011;9773;47.062;15.446;2022-12-07T16:22:28;12.63;;;9.67;;
19278;SDS011;9773;47.062;15.446;2022-12-07T16:24:54;13.17;;;9.27;;
19278;SDS011;9773;47.062;15.446;2022-12-07T16:27:20;14.90;;;9.53;;
19278;SDS011;9773;47.062;15.446;2022-12-07T16:29:46;13.53;;;9.63;;
19278;SDS011;9773;47.062;15.446;2022-12-07T16:32:12;12.83;;;8.83;;
19278;SDS011;9773;47.062;15.446;2022-12-07T16:34:39;13.80;;;10.37;;
19278;SDS011;9773;47.062;15.446;2022-12-07T16:37:04;14.53;;;10.07;;
19278;SDS011;9773;47.062;15.446;2022-12-07T16:39:31;12.80;;;9.40;;
19278;SDS011;9773;47.062;15.446;2022-12-07T16:42:00;13.03;;;9.77;;
19278;SDS011;9773;47.062;15.446;2022-12-07T16:44:26;14.17;;;10.03;;
19278;SDS011;9773;47.062;15.446;2022-12-07T16:46:53;13.23;;;9.73;;
19278;SDS011;9773;47.062;15.446;2022-12-07T16:49:19;12.90;;;9.30;;
19278;SDS011;9773;47.062;15.446;2022-12-07T16:51:44;12.20;;;9.43;;
19278;SDS011;9773;47.062;15.446;2022-12-07T16:54:12;13.77;;;9.93;;
19278;SDS011;9773;47.062;15.446;2022-12-07T16:56:38;12.47;;;9.53;;